Time;durP1;ratioP1;P1;durP2;ratioP2;P2;SDS_P1;SDS_P2;PMS_P1;PMS_P2;Temp;Humidity;BMP_temperature;BMP_pressure;BME280_temperature;BME280_humidity;BME280_pressure;Samples;Min_cycle;Max_cycle;Signal;HPM_P1;HPM_P2
2023/06/26 00:00:15;;;;;;;0.00;0.00;;;20.30;97.40;;;;;;5051176;28;20272;-60
2023/06/26 00:02:40;;;;;;;0.00;0.00;;;20.30;97.80;;;;;;5050869;28;20192;-60
2023/06/26 00:05:06;;;;;;;0.00;0.00;;;20.30;97.90;;;;;;5051252;28;20177;-60
2023/06/26 00:07:34;;;;;;;0.00;0.00;;;20.30;98.00;;;;;;5050862;28;20182;-60
2023/06/26 00:10:02;;;;;;;0.00;0.00;;;20.20;98.20;;;;;;5050950;28;20224;-60
2023/06/26 00:12:28;;;;;;;0.00;0.00;;;20.20;98.60;;;;;;5050998;28;20181;-60
2023/06/26 00:14:53;;;;;;;0.00;0.00;;;20.10;98.80;;;;;;5050905;28;20169;-60
2023/06/26 00:17:19;;;;;;;0.00;0.00;;;20.10;98.90;;;;;;5050543;28;20182;-60
2023/06/26 00:19:45;;;;;;;0.17;0.17;;;20.10;99.10;;;;;;5050668;28;20181;-60
2023/06/26 00:22:11;;;;;;;0.00;0.00;;;20.10;99.20;;;;;;5050621;28;20192;-60
2023/06/26 00:24:37;;;;;;;0.00;0.00;;;20.10;99.40;;;;;;5050489;28;20235;-60
2023/06/26 00:27:02;;;;;;;0.00;0.00;;;20.10;99.50;;;;;;5050537;28;20229;-60
2023/06/26 00:29:28;;;;;;;0.10;0.10;;;20.00;99.60;;;;;;5050398;28;20209;-60
2023/06/26 00:31:53;;;;;;;0.00;0.00;;;20.00;99.80;;;;;;5050293;28;20222;-60
2023/06/26 00:34:19;;;;;;;0.00;0.00;;;20.00;99.80;;;;;;5049688;28;20173;-60
2023/06/26 00:36:45;;;;;;;0.00;0.00;;;20.00;99.90;;;;;;5034527;28;20772;-60
2023/06/26 00:39:10;;;;;;;0.00;0.00;;;20.00;99.90;;;;;;5034463;28;20228;-61
2023/06/26 00:41:37;;;;;;;0.00;0.00;;;20.00;99.90;;;;;;5034341;28;20182;-60
2023/06/26 00:44:04;;;;;;;0.00;0.00;;;20.00;99.90;;;;;;5039313;28;20177;-61
2023/06/26 00:46:30;;;;;;;0.00;0.00;;;20.00;99.90;;;;;;5054242;28;20173;-61
2023/06/26 00:48:59;;;;;;;0.00;0.00;;;19.90;99.90;;;;;;5054076;28;20664;-61
2023/06/26 00:51:29;;;;;;;1.02;0.52;;;19.90;99.90;;;;;;5054091;28;20188;-60
2023/06/26 00:53:56;;;;;;;0.00;0.00;;;19.80;99.90;;;;;;5053828;28;20243;-60
2023/06/26 00:56:22;;;;;;;0.00;0.00;;;19.80;99.90;;;;;;5053811;28;20185;-60
2023/06/26 00:58:48;;;;;;;0.00;0.00;;;19.70;99.90;;;;;;5053110;28;20182;-60
2023/06/26 01:01:17;;;;;;;0.00;0.00;;;19.60;99.90;;;;;;5053539;28;20181;-60
2023/06/26 01:03:44;;;;;;;0.00;0.00;;;19.60;99.90;;;;;;5053553;28;20561;-60
2023/06/26 01:06:12;;;;;;;0.00;0.00;;;19.60;99.90;;;;;;5053611;28;20181;-60
2023/06/26 01:08:39;;;;;;;0.00;0.00;;;19.50;99.90;;;;;;5053071;28;20641;-60
2023/06/26 01:11:05;;;;;;;0.00;0.00;;;19.60;99.90;;;;;;5053340;28;20220;-60
2023/06/26 01:13:31;;;;;;;0.00;0.00;;;19.50;99.90;;;;;;5053215;28;20174;-60
2023/06/26 01:15:58;;;;;;;0.00;0.00;;;19.50;99.90;;;;;;5053641;28;20640;-60
2023/06/26 01:18:25;;;;;;;0.00;0.00;;;19.50;99.90;;;;;;5053660;28;20458;-60
2023/06/26 01:20:52;;;;;;;0.22;0.08;;;19.50;99.90;;;;;;5053749;28;20205;-60
2023/06/26 01:23:58;;;;;;;0.00;0.00;;;19.40;99.90;;;;;;5053749;28;20541;-60
2023/06/26 01:26:27;;;;;;;0.00;0.00;;;19.40;99.90;;;;;;5046954;28;20189;-60
2023/06/26 01:28:55;;;;;;;0.00;0.00;;;19.30;99.90;;;;;;5053522;28;20181;-60
2023/06/26 01:31:21;;;;;;;0.00;0.00;;;19.20;99.90;;;;;;5052061;28;20209;-60
2023/06/26 01:33:47;;;;;;;0.00;0.00;;;19.20;99.90;;;;;;5053188;28;20195;-60
2023/06/26 01:36:13;;;;;;;0.00;0.00;;;19.10;99.90;;;;;;5035787;28;20505;-61
2023/06/26 01:38:38;;;;;;;0.00;0.00;;;19.10;99.90;;;;;;5036268;28;20204;-61
2023/06/26 01:41:06;;;;;;;0.05;0.05;;;19.00;99.90;;;;;;5052209;28;20242;-61
2023/06/26 01:43:47;;;;;;;0.00;0.00;;;19.00;99.90;;;;;;5052900;28;20185;-61
2023/06/26 01:46:39;;;;;;;0.00;0.00;;;19.00;99.90;;;;;;5050963;28;20177;-61
2023/06/26 01:49:13;;;;;;;0.00;0.00;;;18.90;99.90;;;;;;5053259;28;20263;-61
2023/06/26 01:51:52;;;;;;;0.00;0.00;;;18.90;99.90;;;;;;5053178;28;20535;-61
2023/06/26 01:54:20;;;;;;;0.00;0.00;;;18.80;99.90;;;;;;5053025;28;20181;-60
2023/06/26 01:56:50;;;;;;;0.00;0.00;;;18.80;99.90;;;;;;5053121;28;20177;-60
2023/06/26 01:59:17;;;;;;;0.00;0.00;;;18.80;99.90;;;;;;5052994;28;20235;-60
2023/06/26 02:01:43;;;;;;;0.00;0.00;;;18.70;99.90;;;;;;5052748;28;20591;-61
2023/06/26 02:04:08;;;;;;;0.00;0.00;;;18.60;99.90;;;;;;5052541;28;20645;-60
2023/06/26 02:06:34;;;;;;;0.00;0.00;;;18.60;99.90;;;;;;5052811;28;20225;-61
2023/06/26 02:09:00;;;;;;;0.00;0.00;;;18.50;99.90;;;;;;5052714;28;20652;-60
2023/06/26 02:11:25;;;;;;;0.00;0.00;;;18.50;99.90;;;;;;5053048;28;20238;-60
2023/06/26 02:13:51;;;;;;;0.00;0.00;;;18.40;99.90;;;;;;5052580;28;20177;-60
2023/06/26 02:16:16;;;;;;;0.00;0.00;;;18.40;99.90;;;;;;5052106;28;20190;-60
2023/06/26 02:18:42;;;;;;;0.88;0.22;;;18.40;99.90;;;;;;5051871;28;20667;-60
2023/06/26 02:21:08;;;;;;;0.00;0.00;;;18.30;99.90;;;;;;5052447;28;20188;-60
2023/06/26 02:23:34;;;;;;;0.00;0.00;;;18.30;99.90;;;;;;5052187;28;20517;-60
2023/06/26 02:26:00;;;;;;;0.28;0.28;;;18.30;99.90;;;;;;5050886;28;20239;-60
2023/06/26 02:28:25;;;;;;;0.00;0.00;;;18.20;99.90;;;;;;5052080;28;20270;-60
2023/06/26 02:30:51;;;;;;;0.10;0.10;;;18.20;99.90;;;;;;5052554;28;20216;-60
2023/06/26 02:33:16;;;;;;;0.00;0.00;;;18.20;99.90;;;;;;5052294;28;20186;-60
2023/06/26 02:35:42;;;;;;;0.00;0.00;;;18.10;99.90;;;;;;5037203;28;20189;-60
2023/06/26 02:38:08;;;;;;;0.00;0.00;;;18.10;99.90;;;;;;5032482;28;20571;-60
2023/06/26 02:40:33;;;;;;;0.00;0.00;;;18.00;99.90;;;;;;5032067;28;20660;-60
2023/06/26 02:42:59;;;;;;;1.00;0.25;;;18.00;99.90;;;;;;5043179;28;20196;-60
2023/06/26 02:45:24;;;;;;;0.03;0.03;;;18.00;99.90;;;;;;5052201;28;20227;-61
2023/06/26 02:47:50;;;;;;;0.00;0.00;;;17.90;99.90;;;;;;5052107;28;20196;-61
2023/06/26 02:50:16;;;;;;;0.00;0.00;;;17.90;99.90;;;;;;5051985;28;20217;-60
2023/06/26 02:52:41;;;;;;;0.30;0.30;;;17.90;99.90;;;;;;5051951;28;20258;-60
2023/06/26 02:55:07;;;;;;;0.00;0.00;;;17.80;99.90;;;;;;5051685;28;20695;-60
2023/06/26 02:57:32;;;;;;;0.20;0.20;;;17.80;99.90;;;;;;5051342;28;20554;-61
2023/06/26 02:59:58;;;;;;;0.00;0.00;;;17.80;99.90;;;;;;5051893;28;20182;-61
2023/06/26 03:02:23;;;;;;;0.10;0.10;;;17.70;99.90;;;;;;5051733;28;20178;-60
2023/06/26 03:04:49;;;;;;;0.10;0.10;;;17.70;99.90;;;;;;5051502;28;20177;-61
2023/06/26 03:07:15;;;;;;;0.28;0.28;;;17.70;99.90;;;;;;5051403;28;20188;-60
2023/06/26 03:09:41;;;;;;;0.00;0.00;;;17.70;99.90;;;;;;5051420;28;20296;-60
2023/06/26 03:12:07;;;;;;;0.00;0.00;;;17.70;99.90;;;;;;5050450;28;20693;-61
2023/06/26 03:14:33;;;;;;;0.20;0.20;;;17.70;99.90;;;;;;5051414;28;20173;-61
2023/06/26 03:16:59;;;;;;;0.30;0.30;;;17.70;99.90;;;;;;5051717;28;20181;-61
2023/06/26 03:19:24;;;;;;;0.00;0.00;;;17.70;99.90;;;;;;5051597;28;20256;-60
2023/06/26 03:21:50;;;;;;;0.10;0.10;;;17.70;99.90;;;;;;5051021;28;20256;-60
2023/06/26 03:24:16;;;;;;;0.10;0.10;;;17.70;99.90;;;;;;5050719;28;20192;-60
2023/06/26 03:26:41;;;;;;;0.10;0.10;;;17.60;99.90;;;;;;5050012;28;20704;-61
2023/06/26 03:29:07;;;;;;;0.00;0.00;;;17.60;99.90;;;;;;5050228;28;20596;-62
2023/06/26 03:31:32;;;;;;;0.00;0.00;;;17.60;99.90;;;;;;5050709;28;20177;-61
2023/06/26 03:33:58;;;;;;;0.00;0.00;;;17.60;99.90;;;;;;5050745;28;20173;-62
2023/06/26 03:36:23;;;;;;;0.17;0.17;;;17.70;99.90;;;;;;5045087;28;20268;-62
2023/06/26 03:38:49;;;;;;;0.00;0.00;;;17.70;99.90;;;;;;5046161;28;20178;-62
2023/06/26 03:41:14;;;;;;;0.00;0.00;;;17.80;99.90;;;;;;5046619;28;20188;-61
2023/06/26 03:43:40;;;;;;;0.00;0.00;;;17.90;99.90;;;;;;5048824;28;20231;-62
2023/06/26 03:46:05;;;;;;;0.10;0.10;;;18.00;99.90;;;;;;5050724;28;20535;-61
2023/06/26 03:48:31;;;;;;;0.00;0.00;;;18.00;99.90;;;;;;5050555;28;20186;-61
2023/06/26 03:50:56;;;;;;;0.10;0.10;;;18.10;99.90;;;;;;5050938;28;20225;-61
2023/06/26 03:53:22;;;;;;;0.10;0.10;;;18.00;99.90;;;;;;5049691;28;20201;-64
2023/06/26 03:55:47;;;;;;;0.00;0.00;;;18.00;99.90;;;;;;5050440;28;20189;-64
2023/06/26 03:58:13;;;;;;;0.00;0.00;;;17.90;99.90;;;;;;5050248;28;20193;-61
2023/06/26 04:00:38;;;;;;;0.05;0.05;;;17.90;99.90;;;;;;5050575;28;20183;-62
2023/06/26 04:03:04;;;;;;;0.10;0.10;;;17.90;99.90;;;;;;5050404;28;20196;-61
2023/06/26 04:05:29;;;;;;;0.00;0.00;;;17.90;99.90;;;;;;5049994;28;20205;-61
2023/06/26 04:07:55;;;;;;;0.10;0.10;;;17.90;99.90;;;;;;5050511;28;20212;-62
2023/06/26 04:10:21;;;;;;;0.00;0.00;;;17.90;99.90;;;;;;5052829;28;20201;-64
2023/06/26 04:12:47;;;;;;;0.10;0.10;;;17.90;99.90;;;;;;5053960;28;20636;-62
2023/06/26 04:15:13;;;;;;;0.10;0.10;;;18.00;99.90;;;;;;5054027;28;20275;-61
2023/06/26 04:17:38;;;;;;;0.00;0.00;;;18.10;99.90;;;;;;5055673;28;20629;-62
2023/06/26 04:20:08;;;;;;;0.00;0.00;;;18.20;99.90;;;;;;5054727;28;20185;-62
2023/06/26 04:22:34;;;;;;;0.00;0.00;;;18.50;99.90;;;;;;5054364;28;20177;-62
2023/06/26 04:25:03;;;;;;;0.10;0.10;;;18.70;99.90;;;;;;5054750;28;20242;-62
2023/06/26 04:27:28;;;;;;;0.20;0.20;;;19.10;99.90;;;;;;5054248;28;20228;-61
2023/06/26 04:29:54;;;;;;;0.00;0.00;;;19.40;99.90;;;;;;5054276;28;20217;-62
2023/06/26 04:32:19;;;;;;;0.00;0.00;;;19.80;99.90;;;;;;5054317;28;20235;-62
2023/06/26 04:34:45;;;;;;;0.10;0.10;;;20.10;99.90;;;;;;5054184;28;20185;-61
2023/06/26 04:37:10;;;;;;;0.00;0.00;;;20.40;99.90;;;;;;5054467;28;20652;-62
2023/06/26 04:39:37;;;;;;;0.00;0.00;;;20.70;99.90;;;;;;5054294;28;20312;-61
2023/06/26 04:42:03;;;;;;;0.00;0.00;;;21.10;99.90;;;;;;5054425;28;20271;-62
2023/06/26 04:44:29;;;;;;;0.00;0.00;;;21.40;99.90;;;;;;5054375;28;20172;-61
2023/06/26 04:46:54;;;;;;;0.00;0.00;;;21.70;99.90;;;;;;5051441;28;20846;-61
2023/06/26 04:49:20;;;;;;;0.00;0.00;;;22.00;99.70;;;;;;5054133;28;20197;-61
2023/06/26 04:51:45;;;;;;;0.00;0.00;;;22.30;99.30;;;;;;5053708;28;20200;-61
2023/06/26 04:54:11;;;;;;;0.00;0.00;;;22.60;99.00;;;;;;5054111;28;20197;-61
2023/06/26 04:56:39;;;;;;;0.15;0.15;;;22.90;98.30;;;;;;5052647;28;20177;-62
2023/06/26 04:59:05;;;;;;;0.00;0.00;;;23.20;97.90;;;;;;5053861;28;20660;-62
2023/06/26 05:01:32;;;;;;;0.00;0.00;;;23.60;97.00;;;;;;5053976;28;20235;-62
2023/06/26 05:03:57;;;;;;;0.00;0.00;;;23.80;96.20;;;;;;5053991;28;20166;-61
2023/06/26 05:06:23;;;;;;;0.00;0.00;;;24.10;95.50;;;;;;5053620;28;20186;-61
2023/06/26 05:08:49;;;;;;;0.00;0.00;;;24.40;94.70;;;;;;5053415;28;20189;-62
2023/06/26 05:11:14;;;;;;;0.00;0.00;;;24.70;94.30;;;;;;5053215;28;20212;-62
2023/06/26 05:13:40;;;;;;;0.00;0.00;;;25.10;93.10;;;;;;5053162;28;20208;-62
2023/06/26 05:16:08;;;;;;;0.03;0.03;;;25.40;92.60;;;;;;5051183;28;20205;-62
2023/06/26 05:18:34;;;;;;;0.00;0.00;;;25.80;92.00;;;;;;5052460;28;20174;-62
2023/06/26 05:21:00;;;;;;;0.00;0.00;;;26.20;91.10;;;;;;5053447;28;20184;-62
2023/06/26 05:23:26;;;;;;;0.00;0.00;;;26.50;90.40;;;;;;5053562;28;20175;-62
2023/06/26 05:25:52;;;;;;;0.43;0.43;;;26.80;89.20;;;;;;5053190;28;20264;-62
2023/06/26 05:28:18;;;;;;;0.00;0.00;;;27.20;88.90;;;;;;5053105;28;20359;-62
2023/06/26 05:30:44;;;;;;;0.00;0.00;;;27.60;86.90;;;;;;5052053;28;20213;-62
2023/06/26 05:33:17;;;;;;;0.00;0.00;;;28.00;85.50;;;;;;5053546;28;20192;-62
2023/06/26 05:35:44;;;;;;;0.00;0.00;;;28.40;84.10;;;;;;5052140;28;20182;-62
2023/06/26 05:38:10;;;;;;;0.00;0.00;;;28.70;82.60;;;;;;5053354;28;20251;-62
2023/06/26 05:40:36;;;;;;;0.00;0.00;;;29.00;80.00;;;;;;5053065;28;20181;-62
2023/06/26 05:43:02;;;;;;;0.00;0.00;;;29.20;78.80;;;;;;5053305;28;20656;-62
2023/06/26 05:45:27;;;;;;;0.00;0.00;;;29.50;78.10;;;;;;5051804;28;20272;-62
2023/06/26 05:47:53;;;;;;;0.00;0.00;;;29.90;76.00;;;;;;5050506;28;20273;-62
2023/06/26 05:50:19;;;;;;;0.00;0.00;;;30.10;74.80;;;;;;5053143;28;20699;-62
2023/06/26 05:52:45;;;;;;;0.00;0.00;;;30.40;74.10;;;;;;5052947;28;20224;-62
2023/06/26 05:55:12;;;;;;;0.00;0.00;;;30.70;72.00;;;;;;5053150;28;20178;-62
2023/06/26 05:57:39;;;;;;;0.00;0.00;;;31.10;69.90;;;;;;5052761;28;20193;-62
2023/06/26 06:00:10;;;;;;;0.00;0.00;;;31.60;68.30;;;;;;5053033;28;20189;-62
2023/06/26 06:02:36;;;;;;;0.10;0.10;;;32.00;66.40;;;;;;5052947;28;20668;-62
2023/06/26 06:05:01;;;;;;;0.00;0.00;;;32.20;64.80;;;;;;5052743;28;20775;-62
2023/06/26 06:07:27;;;;;;;0.65;0.30;;;32.60;63.70;;;;;;5052881;28;20178;-63
2023/06/26 06:09:53;;;;;;;0.00;0.00;;;32.70;61.60;;;;;;5052757;28;20213;-63
2023/06/26 06:12:18;;;;;;;0.00;0.00;;;33.00;60.10;;;;;;5051860;28;20181;-63
2023/06/26 06:14:44;;;;;;;0.00;0.00;;;33.30;58.40;;;;;;5052299;28;20180;-62
2023/06/26 06:17:09;;;;;;;0.00;0.00;;;33.60;57.40;;;;;;5051367;28;20632;-62
2023/06/26 06:19:35;;;;;;;0.00;0.00;;;33.80;55.80;;;;;;5052466;28;20594;-63
2023/06/26 06:22:00;;;;;;;0.00;0.00;;;34.10;53.70;;;;;;5052706;28;20188;-62
2023/06/26 06:24:25;;;;;;;0.00;0.00;;;34.50;52.60;;;;;;5052921;28;20177;-63
2023/06/26 06:26:51;;;;;;;0.00;0.00;;;34.90;52.00;;;;;;5052431;28;20778;-63
2023/06/26 06:29:18;;;;;;;0.00;0.00;;;34.70;50.70;;;;;;5052678;28;20186;-62
2023/06/26 06:31:44;;;;;;;0.08;0.08;;;34.80;51.10;;;;;;5052144;28;20179;-62
2023/06/26 06:34:09;;;;;;;0.00;0.00;;;35.00;50.50;;;;;;5051544;28;20245;-63
2023/06/26 06:36:35;;;;;;;0.00;0.00;;;35.30;49.70;;;;;;5052278;28;20211;-63
2023/06/26 06:39:00;;;;;;;0.00;0.00;;;35.60;48.60;;;;;;5052576;28;20177;-62
2023/06/26 06:41:26;;;;;;;0.00;0.00;;;35.80;47.40;;;;;;5052504;28;20798;-63
2023/06/26 06:43:51;;;;;;;0.00;0.00;;;35.80;47.90;;;;;;5052260;28;20181;-62
2023/06/26 06:46:17;;;;;;;0.00;0.00;;;35.70;48.00;;;;;;5052243;28;20184;-62
2023/06/26 06:48:42;;;;;;;0.00;0.00;;;35.70;47.90;;;;;;5052150;28;20175;-63
2023/06/26 06:51:08;;;;;;;0.00;0.00;;;35.60;47.10;;;;;;5052358;28;20330;-62
2023/06/26 06:53:33;;;;;;;0.00;0.00;;;35.80;46.90;;;;;;5051967;28;20172;-63
2023/06/26 06:55:59;;;;;;;0.00;0.00;;;36.00;46.40;;;;;;5051951;28;20282;-63
2023/06/26 06:58:24;;;;;;;0.10;0.10;;;35.90;46.40;;;;;;5052455;28;20503;-62
2023/06/26 07:00:53;;;;;;;0.00;0.00;;;36.10;47.70;;;;;;5052033;28;20184;-62
2023/06/26 07:03:21;;;;;;;0.00;0.00;;;36.50;46.40;;;;;;5052120;28;20252;-62
2023/06/26 07:05:46;;;;;;;0.00;0.00;;;36.30;46.00;;;;;;5050765;28;20183;-62
2023/06/26 07:08:13;;;;;;;0.00;0.00;;;36.20;45.90;;;;;;5051910;28;20176;-62
2023/06/26 07:10:38;;;;;;;0.15;0.15;;;36.10;46.10;;;;;;5051742;28;20212;-63
2023/06/26 07:13:04;;;;;;;0.00;0.00;;;35.40;46.00;;;;;;5051898;28;20658;-63
2023/06/26 07:15:30;;;;;;;0.00;0.00;;;35.30;46.80;;;;;;5051764;28;20176;-62
2023/06/26 07:17:56;;;;;;;0.00;0.00;;;34.90;47.30;;;;;;5051672;28;20526;-62
2023/06/26 07:20:21;;;;;;;0.00;0.00;;;34.80;48.20;;;;;;5051873;28;20173;-62
2023/06/26 07:22:50;;;;;;;0.13;0.13;;;34.70;48.10;;;;;;5051886;28;20208;-62
2023/06/26 07:25:15;;;;;;;0.00;0.00;;;34.60;48.20;;;;;;5051283;28;20765;-62
2023/06/26 07:27:41;;;;;;;0.00;0.00;;;34.70;47.80;;;;;;5051450;28;20262;-63
2023/06/26 07:30:11;;;;;;;0.00;0.00;;;35.00;48.50;;;;;;5051455;28;20216;-62
2023/06/26 07:32:37;;;;;;;0.00;0.00;;;35.60;48.00;;;;;;5051554;28;20176;-62
2023/06/26 07:35:03;;;;;;;0.10;0.10;;;35.80;46.60;;;;;;5051510;28;20169;-63
2023/06/26 07:37:29;;;;;;;0.00;0.00;;;35.80;47.30;;;;;;5051545;28;20267;-62
2023/06/26 07:39:54;;;;;;;0.30;0.30;;;35.70;47.10;;;;;;5051141;28;20188;-63
2023/06/26 07:42:20;;;;;;;0.00;0.00;;;35.20;47.20;;;;;;5051344;28;20185;-62
2023/06/26 07:44:46;;;;;;;0.00;0.00;;;35.20;47.50;;;;;;5050453;28;20177;-62
2023/06/26 07:47:11;;;;;;;0.30;0.30;;;35.70;48.20;;;;;;5050734;28;20654;-62
2023/06/26 07:49:38;;;;;;;0.00;0.00;;;36.10;46.40;;;;;;5051107;28;20240;-62
2023/06/26 07:52:04;;;;;;;0.00;0.00;;;36.50;46.60;;;;;;5051244;28;20200;-63
2023/06/26 07:54:30;;;;;;;0.00;0.00;;;36.30;45.20;;;;;;5051217;28;20636;-62
2023/06/26 07:56:59;;;;;;;0.00;0.00;;;35.60;45.70;;;;;;5051135;28;20185;-62
2023/06/26 07:59:27;;;;;;;0.00;0.00;;;34.90;46.20;;;;;;5051250;28;20175;-62
2023/06/26 08:01:54;;;;;;;0.00;0.00;;;34.40;47.00;;;;;;5050875;28;20714;-62
2023/06/26 08:04:21;;;;;;;0.00;0.00;;;33.90;47.50;;;;;;5051112;28;20211;-62
2023/06/26 08:06:51;;;;;;;0.00;0.00;;;33.80;48.40;;;;;;5051021;28;20684;-62
2023/06/26 08:09:19;;;;;;;0.20;0.20;;;34.10;48.20;;;;;;5051060;28;20205;-62
2023/06/26 08:11:45;;;;;;;0.00;0.00;;;34.10;48.50;;;;;;5050981;28;20183;-62
2023/06/26 08:14:14;;;;;;;0.00;0.00;;;34.60;47.90;;;;;;5050987;28;20581;-62
2023/06/26 08:16:46;;;;;;;0.00;0.00;;;35.10;48.00;;;;;;5050928;28;20640;-63
2023/06/26 08:19:12;;;;;;;0.00;0.00;;;35.50;46.80;;;;;;5050963;28;20180;-62
2023/06/26 08:21:38;;;;;;;0.00;0.00;;;35.30;47.30;;;;;;5050849;28;20172;-62
2023/06/26 08:24:03;;;;;;;0.00;0.00;;;35.30;47.00;;;;;;5050908;28;20183;-62
2023/06/26 08:26:29;;;;;;;0.00;0.00;;;35.50;47.70;;;;;;5049465;28;20542;-62
2023/06/26 08:28:55;;;;;;;0.00;0.00;;;35.60;46.10;;;;;;5050842;28;20643;-62
2023/06/26 08:31:20;;;;;;;0.08;0.08;;;35.50;47.00;;;;;;5050835;28;20255;-62
2023/06/26 08:33:46;;;;;;;0.00;0.00;;;35.60;47.00;;;;;;5050747;28;20196;-62
2023/06/26 08:36:12;;;;;;;0.00;0.00;;;35.90;47.00;;;;;;5050671;28;20184;-62
2023/06/26 08:38:40;;;;;;;0.00;0.00;;;35.80;46.40;;;;;;5050610;28;20534;-62
2023/06/26 08:41:06;;;;;;;0.08;0.08;;;35.70;47.60;;;;;;5050626;28;20242;-62
2023/06/26 08:43:32;;;;;;;0.00;0.00;;;35.40;46.90;;;;;;5050478;28;20177;-62
2023/06/26 08:45:58;;;;;;;0.00;0.00;;;34.70;47.20;;;;;;5050474;28;20173;-62
2023/06/26 08:48:24;;;;;;;0.00;0.00;;;34.10;48.60;;;;;;5050372;28;20314;-62
2023/06/26 08:50:53;;;;;;;0.00;0.00;;;33.80;49.20;;;;;;5050283;28;20315;-62
2023/06/26 08:53:43;;;;;;;0.00;0.00;;;33.30;49.80;;;;;;5050524;28;20174;-62
2023/06/26 08:56:08;;;;;;;0.00;0.00;;;32.90;49.80;;;;;;5052621;28;20699;-62
2023/06/26 08:58:37;;;;;;;0.00;0.00;;;32.50;51.20;;;;;;5054008;28;20252;-62
2023/06/26 09:01:04;;;;;;;0.00;0.00;;;32.40;52.00;;;;;;5054315;28;20174;-62
2023/06/26 09:03:31;;;;;;;0.00;0.00;;;32.30;52.30;;;;;;5054204;28;20564;-62
2023/06/26 09:05:56;;;;;;;0.00;0.00;;;32.30;52.30;;;;;;5054140;28;20584;-62
2023/06/26 09:08:22;;;;;;;0.00;0.00;;;32.50;52.50;;;;;;5054113;28;20270;-63
2023/06/26 09:10:48;;;;;;;0.40;0.10;;;32.50;52.00;;;;;;5053877;28;20240;-62
2023/06/26 09:13:13;;;;;;;0.00;0.00;;;32.60;52.10;;;;;;5054065;28;20201;-62
2023/06/26 09:15:43;;;;;;;0.00;0.00;;;32.70;51.90;;;;;;5053959;28;20252;-62
2023/06/26 09:18:09;;;;;;;0.00;0.00;;;32.80;52.30;;;;;;5054133;28;20189;-62
2023/06/26 09:20:36;;;;;;;0.10;0.10;;;32.80;52.50;;;;;;5053712;28;20247;-62
2023/06/26 09:23:02;;;;;;;0.00;0.00;;;32.40;52.40;;;;;;5053825;28;20177;-62
2023/06/26 09:25:28;;;;;;;0.00;0.00;;;31.60;53.20;;;;;;5053790;28;20190;-62
2023/06/26 09:27:53;;;;;;;0.10;0.10;;;31.70;54.80;;;;;;5053413;28;20244;-62
2023/06/26 09:30:19;;;;;;;0.00;0.00;;;32.10;55.40;;;;;;5053883;28;20308;-62
2023/06/26 09:32:45;;;;;;;0.00;0.00;;;32.20;54.10;;;;;;5053598;28;20581;-62
2023/06/26 09:35:11;;;;;;;0.30;0.30;;;32.20;53.60;;;;;;5053639;28;20247;-62
2023/06/26 09:37:37;;;;;;;0.00;0.00;;;32.40;54.10;;;;;;5053469;28;20182;-62
2023/06/26 09:40:04;;;;;;;0.00;0.00;;;32.50;53.50;;;;;;5053483;28;20655;-62
2023/06/26 09:42:30;;;;;;;0.10;0.00;;;32.10;54.20;;;;;;5053613;28;20733;-62
2023/06/26 09:44:56;;;;;;;0.00;0.00;;;32.30;54.80;;;;;;5053517;28;20178;-62
2023/06/26 09:47:21;;;;;;;0.00;0.00;;;32.50;54.90;;;;;;5053411;28;20250;-63
2023/06/26 09:49:47;;;;;;;0.00;0.00;;;32.50;54.70;;;;;;5053419;28;20202;-63
2023/06/26 09:52:17;;;;;;;0.00;0.00;;;32.60;55.20;;;;;;5053315;28;20270;-62
2023/06/26 09:54:46;;;;;;;0.00;0.00;;;32.70;54.70;;;;;;5053336;28;20180;-62
2023/06/26 09:57:12;;;;;;;0.00;0.00;;;32.70;53.80;;;;;;5053314;28;20312;-62
2023/06/26 09:59:39;;;;;;;0.00;0.00;;;32.20;54.10;;;;;;5053246;28;20201;-62
2023/06/26 10:02:06;;;;;;;0.20;0.20;;;31.80;55.20;;;;;;5053325;28;20177;-62
2023/06/26 10:04:32;;;;;;;0.00;0.00;;;31.70;56.20;;;;;;5053102;28;20176;-62
2023/06/26 10:07:11;;;;;;;0.00;0.00;;;31.40;56.60;;;;;;5052188;28;20176;-62
2023/06/26 10:09:45;;;;;;;0.00;0.00;;;31.60;57.10;;;;;;5053030;28;20181;-62
2023/06/26 10:12:17;;;;;;;0.00;0.00;;;31.80;57.00;;;;;;5053194;28;20637;-62
2023/06/26 10:14:43;;;;;;;0.00;0.00;;;31.60;56.90;;;;;;5053087;28;20260;-62
2023/06/26 10:17:10;;;;;;;0.13;0.13;;;31.60;56.50;;;;;;5053184;28;20767;-62
2023/06/26 10:19:38;;;;;;;0.10;0.10;;;31.60;56.90;;;;;;5052848;28;20180;-62
2023/06/26 10:22:04;;;;;;;0.00;0.00;;;31.50;57.00;;;;;;5052993;28;20706;-62
2023/06/26 10:24:33;;;;;;;0.00;0.00;;;31.40;56.80;;;;;;5053028;28;20212;-63
2023/06/26 10:27:20;;;;;;;0.00;0.00;;;31.00;57.40;;;;;;5052783;28;20696;-62
2023/06/26 10:29:50;;;;;;;0.00;0.00;;;30.40;58.20;;;;;;5052641;28;20570;-62
2023/06/26 10:32:17;;;;;;;0.00;0.00;;;30.20;59.70;;;;;;5052747;28;20314;-62
2023/06/26 10:34:43;;;;;;;0.00;0.00;;;30.40;60.00;;;;;;5052705;28;20714;-62
2023/06/26 10:37:09;;;;;;;0.00;0.00;;;30.80;60.40;;;;;;5052720;28;20181;-62
2023/06/26 10:39:54;;;;;;;0.43;0.10;;;31.20;60.20;;;;;;5052514;28;20256;-62
2023/06/26 10:42:28;;;;;;;0.10;0.10;;;31.70;58.60;;;;;;5052582;28;20243;-62
2023/06/26 10:44:53;;;;;;;0.00;0.00;;;32.20;58.00;;;;;;5052354;28;20188;-62
2023/06/26 10:47:32;;;;;;;0.00;0.00;;;32.40;56.70;;;;;;5052348;28;20542;-62
2023/06/26 10:50:24;;;;;;;0.00;0.00;;;32.80;56.50;;;;;;5052365;28;20676;-62
2023/06/26 10:53:15;;;;;;;0.00;0.00;;;32.90;56.60;;;;;;5052308;28;20629;-62
2023/06/26 10:55:50;;;;;;;0.00;0.00;;;32.80;56.80;;;;;;5052232;28;20687;-62
2023/06/26 10:58:43;;;;;;;0.00;0.00;;;32.90;57.10;;;;;;5052266;28;20546;-62
2023/06/26 11:01:12;;;;;;;0.00;0.00;;;32.70;56.80;;;;;;5052285;28;20235;-62
2023/06/26 11:03:38;;;;;;;0.75;0.00;;;32.60;56.80;;;;;;5052051;28;20181;-62
2023/06/26 11:06:11;;;;;;;0.15;0.15;;;32.70;57.20;;;;;;5052096;28;20182;-62
2023/06/26 11:08:49;;;;;;;0.00;0.00;;;32.90;57.60;;;;;;5051957;28;20185;-62
2023/06/26 11:11:16;;;;;;;0.00;0.00;;;33.10;57.10;;;;;;5051767;28;20719;-62
2023/06/26 11:13:44;;;;;;;0.00;0.00;;;33.10;57.00;;;;;;5051948;28;20181;-62
2023/06/26 11:16:11;;;;;;;0.00;0.00;;;32.90;56.50;;;;;;5051905;28;20205;-62
2023/06/26 11:18:37;;;;;;;0.05;0.05;;;32.50;56.70;;;;;;5051630;28;20176;-62
2023/06/26 11:21:11;;;;;;;0.10;0.00;;;32.20;57.80;;;;;;5051899;28;20170;-62
2023/06/26 11:23:37;;;;;;;0.10;0.10;;;32.00;58.00;;;;;;5051700;28;20549;-62
2023/06/26 11:26:23;;;;;;;0.20;0.20;;;31.80;58.70;;;;;;5051817;28;20177;-62
2023/06/26 11:28:49;;;;;;;0.00;0.00;;;31.90;59.20;;;;;;5051532;28;20185;-62
2023/06/26 11:31:28;;;;;;;0.10;0.10;;;31.50;59.80;;;;;;5051506;28;20235;-62
2023/06/26 11:33:56;;;;;;;0.00;0.00;;;31.30;60.00;;;;;;5051542;28;20177;-62
2023/06/26 11:36:24;;;;;;;0.00;0.00;;;31.20;60.70;;;;;;5051644;28;20177;-62
2023/06/26 11:38:58;;;;;;;0.10;0.10;;;30.80;61.10;;;;;;5051401;28;20178;-62
2023/06/26 11:41:25;;;;;;;0.20;0.20;;;30.70;61.60;;;;;;5051521;28;20514;-62
2023/06/26 11:43:52;;;;;;;0.20;0.17;;;30.70;62.40;;;;;;5051484;28;20626;-62
2023/06/26 11:46:19;;;;;;;0.17;0.17;;;30.80;62.30;;;;;;5051400;28;20177;-62
2023/06/26 11:48:44;;;;;;;0.70;0.15;;;30.90;61.90;;;;;;5051363;28;20188;-62
2023/06/26 11:51:14;;;;;;;0.00;0.00;;;31.00;62.40;;;;;;5051394;28;20216;-61
2023/06/26 11:53:41;;;;;;;0.10;0.10;;;31.00;61.90;;;;;;5051207;28;20212;-61
2023/06/26 11:56:12;;;;;;;0.00;0.00;;;31.10;61.40;;;;;;5051295;28;20625;-61
2023/06/26 11:58:55;;;;;;;0.00;0.00;;;31.20;60.90;;;;;;5051266;28;20180;-62
2023/06/26 12:01:22;;;;;;;0.00;0.00;;;31.30;60.20;;;;;;5051362;28;20181;-61
2023/06/26 12:03:48;;;;;;;0.10;0.10;;;31.50;60.40;;;;;;5051086;28;20182;-61
2023/06/26 12:06:15;;;;;;;0.00;0.00;;;31.90;59.90;;;;;;5051192;28;20188;-61
2023/06/26 12:08:40;;;;;;;0.00;0.00;;;32.20;58.90;;;;;;5051117;28;20168;-62
2023/06/26 12:11:06;;;;;;;0.25;0.25;;;32.30;59.10;;;;;;5051080;28;20205;-62
2023/06/26 12:13:32;;;;;;;0.00;0.00;;;32.60;58.30;;;;;;5050931;28;20648;-62
2023/06/26 12:15:57;;;;;;;0.52;0.45;;;32.40;57.70;;;;;;5051088;28;20188;-62
2023/06/26 12:18:25;;;;;;;0.00;0.00;;;32.70;58.00;;;;;;5051200;28;20585;-62
2023/06/26 12:20:51;;;;;;;0.00;0.00;;;32.90;56.90;;;;;;5051029;28;20189;-62
2023/06/26 12:23:17;;;;;;;0.00;0.00;;;33.10;56.90;;;;;;5049992;28;20181;-62
2023/06/26 12:25:43;;;;;;;0.10;0.10;;;32.90;57.00;;;;;;5055221;28;20189;-61
2023/06/26 12:28:18;;;;;;;0.00;0.00;;;32.80;57.00;;;;;;5062157;28;20220;-61
2023/06/26 12:30:47;;;;;;;0.00;0.00;;;33.00;57.10;;;;;;5052154;28;20254;-62
2023/06/26 12:33:14;;;;;;;0.00;0.00;;;33.00;56.70;;;;;;5053331;28;20173;-61
2023/06/26 12:35:40;;;;;;;0.00;0.00;;;32.80;56.10;;;;;;5054404;28;20817;-61
2023/06/26 12:38:10;;;;;;;0.08;0.00;;;33.10;56.80;;;;;;5054577;28;20169;-61
2023/06/26 12:40:44;;;;;;;0.00;0.00;;;33.10;55.90;;;;;;5054167;28;20198;-61
2023/06/26 12:43:22;;;;;;;0.00;0.00;;;32.80;56.10;;;;;;5054387;28;20185;-61
2023/06/26 12:45:47;;;;;;;0.00;0.00;;;32.60;55.90;;;;;;5054360;28;20575;-61
2023/06/26 12:48:13;;;;;;;0.10;0.10;;;32.70;55.50;;;;;;5054124;28;20177;-61